sensor_id;sensor_type;location;lat;lon;timestamp;P1;durP1;ratioP1;P2;durP2;ratioP2
51034;SDS011;37062;52.546;13.230;2023-04-01T00:01:09;2.65;;;2.08;;
51034;SDS011;37062;52.546;13.230;2023-04-01T00:03:41;3.83;;;2.42;;
51034;SDS011;37062;52.546;13.230;2023-04-01T00:06:11;4.72;;;2.25;;
51034;SDS011;37062;52.546;13.230;2023-04-01T00:08:41;2.58;;;1.90;;
51034;SDS011;37062;52.546;13.230;2023-04-01T00:11:10;3.38;;;2.05;;
51034;SDS011;37062;52.546;13.230;2023-04-01T00:13:39;3.10;;;2.10;;
51034;SDS011;37062;52.546;13.230;2023-04-01T00:16:08;4.47;;;1.90;;
51034;SDS011;37062;52.546;13.230;2023-04-01T00:18:49;2.33;;;1.70;;
51034;SDS011;37062;52.546;13.230;2023-04-01T00:21:18;3.42;;;1.58;;
51034;SDS011;37062;52.546;13.230;2023-04-01T00:23:48;2.63;;;1.98;;
51034;SDS011;37062;52.546;13.230;2023-04-01T00:26:17;2.40;;;1.70;;
51034;SDS011;37062;52.546;13.230;2023-04-01T00:28:48;2.15;;;1.85;;
51034;SDS011;37062;52.546;13.230;2023-04-01T00:31:16;3.70;;;1.90;;
51034;SDS011;37062;52.546;13.230;2023-04-01T00:33:45;2.75;;;1.65;;
51034;SDS011;37062;52.546;13.230;2023-04-01T00:36:15;4.80;;;1.70;;
51034;SDS011;37062;52.546;13.230;2023-04-01T00:38:45;4.18;;;2.17;;
51034;SDS011;37062;52.546;13.230;2023-04-01T00:41:14;2.55;;;1.50;;
51034;SDS011;37062;52.546;13.230;2023-04-01T00:43:44;3.13;;;1.95;;
51034;SDS011;37062;52.546;13.230;2023-04-01T00:46:14;3.60;;;1.80;;
51034;SDS011;37062;52.546;13.230;2023-04-01T00:48:43;3.38;;;1.85;;
51034;SDS011;37062;52.546;13.230;2023-04-01T00:51:17;1.88;;;1.60;;
51034;SDS011;37062;52.546;13.230;2023-04-01T00:53:48;2.38;;;1.52;;
51034;SDS011;37062;52.546;13.230;2023-04-01T00:56:21;4.28;;;1.70;;
51034;SDS011;37062;52.546;13.230;2023-04-01T00:58:54;2.72;;;1.70;;
51034;SDS011;37062;52.546;13.230;2023-04-01T01:01:26;2.92;;;1.77;;
51034;SDS011;37062;52.546;13.230;2023-04-01T01:03:57;3.60;;;1.88;;
51034;SDS011;37062;52.546;13.230;2023-04-01T01:06:30;1.95;;;1.20;;
51034;SDS011;37062;52.546;13.230;2023-04-01T01:09:15;1.90;;;1.65;;
51034;SDS011;37062;52.546;13.230;2023-04-01T01:11:54;3.17;;;1.63;;
51034;SDS011;37062;52.546;13.230;2023-04-01T01:14:32;3.65;;;1.70;;
51034;SDS011;37062;52.546;13.230;2023-04-01T01:17:08;6.45;;;2.95;;
51034;SDS011;37062;52.546;13.230;2023-04-01T01:19:53;6.05;;;2.45;;
51034;SDS011;37062;52.546;13.230;2023-04-01T01:22:55;4.10;;;1.73;;
51034;SDS011;37062;52.546;13.230;2023-04-01T01:25:49;3.08;;;1.80;;
51034;SDS011;37062;52.546;13.230;2023-04-01T01:28:35;4.65;;;1.70;;
51034;SDS011;37062;52.546;13.230;2023-04-01T01:31:15;2.78;;;1.70;;
51034;SDS011;37062;52.546;13.230;2023-04-01T01:33:57;2.85;;;1.77;;
51034;SDS011;37062;52.546;13.230;2023-04-01T01:36:37;2.15;;;1.50;;
51034;SDS011;37062;52.546;13.230;2023-04-01T01:39:08;5.88;;;1.70;;
51034;SDS011;37062;52.546;13.230;2023-04-01T01:41:38;4.30;;;1.90;;
51034;SDS011;37062;52.546;13.230;2023-04-01T01:44:11;1.83;;;1.33;;
51034;SDS011;37062;52.546;13.230;2023-04-01T01:46:42;3.50;;;2.00;;
51034;SDS011;37062;52.546;13.230;2023-04-01T01:49:11;2.50;;;1.77;;
51034;SDS011;37062;52.546;13.230;2023-04-01T01:51:42;2.60;;;1.40;;
51034;SDS011;37062;52.546;13.230;2023-04-01T01:54:12;3.65;;;1.50;;
51034;SDS011;37062;52.546;13.230;2023-04-01T01:56:42;3.10;;;1.63;;
51034;SDS011;37062;52.546;13.230;2023-04-01T01:59:14;2.60;;;1.45;;
51034;SDS011;37062;52.546;13.230;2023-04-01T02:01:46;2.15;;;1.40;;
51034;SDS011;37062;52.546;13.230;2023-04-01T02:04:21;2.85;;;1.40;;
51034;SDS011;37062;52.546;13.230;2023-04-01T02:06:53;2.33;;;1.50;;
51034;SDS011;37062;52.546;13.230;2023-04-01T02:09:27;1.58;;;1.40;;
51034;SDS011;37062;52.546;13.230;2023-04-01T02:11:56;2.70;;;1.42;;
51034;SDS011;37062;52.546;13.230;2023-04-01T02:14:29;2.97;;;1.70;;
51034;SDS011;37062;52.546;13.230;2023-04-01T02:17:07;2.55;;;1.48;;
51034;SDS011;37062;52.546;13.230;2023-04-01T02:19:39;4.20;;;1.48;;
51034;SDS011;37062;52.546;13.230;2023-04-01T02:22:16;3.92;;;1.40;;
51034;SDS011;37062;52.546;13.230;2023-04-01T02:24:49;4.40;;;1.88;;
51034;SDS011;37062;52.546;13.230;2023-04-01T02:27:20;2.28;;;1.45;;
51034;SDS011;37062;52.546;13.230;2023-04-01T02:29:48;3.00;;;1.50;;
51034;SDS011;37062;52.546;13.230;2023-04-01T02:32:18;3.83;;;1.60;;
51034;SDS011;37062;52.546;13.230;2023-04-01T02:34:47;2.50;;;1.50;;
51034;SDS011;37062;52.546;13.230;2023-04-01T02:37:17;3.10;;;1.40;;
51034;SDS011;37062;52.546;13.230;2023-04-01T02:39:46;1.98;;;1.30;;
51034;SDS011;37062;52.546;13.230;2023-04-01T02:42:14;4.32;;;1.60;;
51034;SDS011;37062;52.546;13.230;2023-04-01T02:44:42;1.80;;;1.40;;
51034;SDS011;37062;52.546;13.230;2023-04-01T02:47:11;2.45;;;1.50;;
51034;SDS011;37062;52.546;13.230;2023-04-01T02:49:39;4.40;;;1.80;;
51034;SDS011;37062;52.546;13.230;2023-04-01T02:52:08;1.98;;;1.30;;
51034;SDS011;37062;52.546;13.230;2023-04-01T02:54:38;2.88;;;1.73;;
51034;SDS011;37062;52.546;13.230;2023-04-01T02:57:06;3.55;;;1.75;;
51034;SDS011;37062;52.546;13.230;2023-04-01T02:59:35;3.40;;;1.50;;
51034;SDS011;37062;52.546;13.230;2023-04-01T03:02:05;4.28;;;1.80;;
51034;SDS011;37062;52.546;13.230;2023-04-01T03:04:34;4.45;;;1.58;;
51034;SDS011;37062;52.546;13.230;2023-04-01T03:07:02;2.53;;;1.73;;
51034;SDS011;37062;52.546;13.230;2023-04-01T03:09:30;3.67;;;1.50;;
51034;SDS011;37062;52.546;13.230;2023-04-01T03:12:00;2.78;;;1.70;;
51034;SDS011;37062;52.546;13.230;2023-04-01T03:14:32;2.17;;;1.30;;
51034;SDS011;37062;52.546;13.230;2023-04-01T03:17:01;2.17;;;1.50;;
51034;SDS011;37062;52.546;13.230;2023-04-01T03:19:29;3.55;;;1.52;;
51034;SDS011;37062;52.546;13.230;2023-04-01T03:21:58;1.92;;;1.20;;
51034;SDS011;37062;52.546;13.230;2023-04-01T03:24:27;1.83;;;1.60;;
51034;SDS011;37062;52.546;13.230;2023-04-01T03:26:55;4.20;;;1.60;;
51034;SDS011;37062;52.546;13.230;2023-04-01T03:29:25;3.83;;;1.83;;
51034;SDS011;37062;52.546;13.230;2023-04-01T03:31:53;3.25;;;1.50;;
51034;SDS011;37062;52.546;13.230;2023-04-01T03:34:24;3.53;;;1.75;;
51034;SDS011;37062;52.546;13.230;2023-04-01T03:36:52;2.00;;;1.50;;
51034;SDS011;37062;52.546;13.230;2023-04-01T03:39:21;2.28;;;1.35;;
51034;SDS011;37062;52.546;13.230;2023-04-01T03:41:49;3.28;;;1.50;;
51034;SDS011;37062;52.546;13.230;2023-04-01T03:44:17;2.00;;;1.08;;
51034;SDS011;37062;52.546;13.230;2023-04-01T03:46:50;2.38;;;1.50;;
51034;SDS011;37062;52.546;13.230;2023-04-01T03:49:19;3.08;;;1.48;;
51034;SDS011;37062;52.546;13.230;2023-04-01T03:51:48;3.05;;;1.40;;
51034;SDS011;37062;52.546;13.230;2023-04-01T03:54:16;2.50;;;1.40;;
51034;SDS011;37062;52.546;13.230;2023-04-01T03:56:46;2.85;;;1.27;;
51034;SDS011;37062;52.546;13.230;2023-04-01T03:59:15;2.63;;;1.58;;
51034;SDS011;37062;52.546;13.230;2023-04-01T04:01:43;3.55;;;1.67;;
51034;SDS011;37062;52.546;13.230;2023-04-01T04:04:15;3.45;;;1.58;;
51034;SDS011;37062;52.546;13.230;2023-04-01T04:06:44;3.28;;;1.60;;
51034;SDS011;37062;52.546;13.230;2023-04-01T04:09:13;2.05;;;1.40;;
51034;SDS011;37062;52.546;13.230;2023-04-01T04:11:41;3.65;;;1.75;;
51034;SDS011;37062;52.546;13.230;2023-04-01T04:14:09;2.00;;;1.40;;
51034;SDS011;37062;52.546;13.230;2023-04-01T04:16:38;3.95;;;1.50;;
51034;SDS011;37062;52.546;13.230;2023-04-01T04:19:06;3.30;;;1.80;;
51034;SDS011;37062;52.546;13.230;2023-04-01T04:21:37;3.65;;;1.80;;
51034;SDS011;37062;52.546;13.230;2023-04-01T04:24:05;4.03;;;1.80;;
51034;SDS011;37062;52.546;13.230;2023-04-01T04:27:06;2.38;;;1.63;;
51034;SDS011;37062;52.546;13.230;2023-04-01T04:29:41;2.78;;;1.50;;
51034;SDS011;37062;52.546;13.230;2023-04-01T04:32:09;2.80;;;1.60;;
51034;SDS011;37062;52.546;13.230;2023-04-01T04:34:38;3.70;;;1.85;;
51034;SDS011;37062;52.546;13.230;2023-04-01T04:37:08;4.75;;;1.75;;
51034;SDS011;37062;52.546;13.230;2023-04-01T04:39:36;4.68;;;2.03;;
51034;SDS011;37062;52.546;13.230;2023-04-01T04:42:06;3.70;;;1.60;;
51034;SDS011;37062;52.546;13.230;2023-04-01T04:44:34;3.38;;;1.48;;
51034;SDS011;37062;52.546;13.230;2023-04-01T04:47:02;4.88;;;1.90;;
51034;SDS011;37062;52.546;13.230;2023-04-01T04:49:31;5.10;;;1.65;;
51034;SDS011;37062;52.546;13.230;2023-04-01T04:52:04;3.38;;;1.88;;
51034;SDS011;37062;52.546;13.230;2023-04-01T04:54:34;2.90;;;1.60;;
51034;SDS011;37062;52.546;13.230;2023-04-01T04:57:03;3.65;;;1.58;;
51034;SDS011;37062;52.546;13.230;2023-04-01T04:59:38;4.47;;;1.80;;
51034;SDS011;37062;52.546;13.230;2023-04-01T05:02:13;3.03;;;1.70;;
51034;SDS011;37062;52.546;13.230;2023-04-01T05:04:41;5.30;;;2.00;;
51034;SDS011;37062;52.546;13.230;2023-04-01T05:07:10;4.03;;;1.75;;
51034;SDS011;37062;52.546;13.230;2023-04-01T05:09:39;2.47;;;1.60;;
51034;SDS011;37062;52.546;13.230;2023-04-01T05:12:08;2.33;;;1.60;;
51034;SDS011;37062;52.546;13.230;2023-04-01T05:15:07;2.40;;;1.45;;
51034;SDS011;37062;52.546;13.230;2023-04-01T05:17:37;3.83;;;1.67;;
51034;SDS011;37062;52.546;13.230;2023-04-01T05:20:06;3.83;;;1.70;;
51034;SDS011;37062;52.546;13.230;2023-04-01T05:22:35;3.25;;;1.63;;
51034;SDS011;37062;52.546;13.230;2023-04-01T05:25:05;5.30;;;1.90;;
51034;SDS011;37062;52.546;13.230;2023-04-01T05:27:34;2.30;;;1.73;;
51034;SDS011;37062;52.546;13.230;2023-04-01T05:30:02;4.88;;;2.13;;
51034;SDS011;37062;52.546;13.230;2023-04-01T05:32:41;2.83;;;1.85;;
51034;SDS011;37062;52.546;13.230;2023-04-01T05:35:10;2.83;;;1.60;;
51034;SDS011;37062;52.546;13.230;2023-04-01T05:37:39;4.70;;;2.20;;
51034;SDS011;37062;52.546;13.230;2023-04-01T05:40:09;4.53;;;1.88;;
51034;SDS011;37062;52.546;13.230;2023-04-01T05:42:38;2.85;;;1.70;;
51034;SDS011;37062;52.546;13.230;2023-04-01T05:45:07;5.53;;;2.00;;
51034;SDS011;37062;52.546;13.230;2023-04-01T05:47:54;4.07;;;1.90;;
51034;SDS011;37062;52.546;13.230;2023-04-01T05:50:22;3.90;;;1.98;;
51034;SDS011;37062;52.546;13.230;2023-04-01T05:52:51;3.60;;;1.90;;
51034;SDS011;37062;52.546;13.230;2023-04-01T05:55:21;3.90;;;2.00;;
51034;SDS011;37062;52.546;13.230;2023-04-01T05:57:50;4.55;;;1.90;;
51034;SDS011;37062;52.546;13.230;2023-04-01T06:00:18;4.78;;;2.20;;
51034;SDS011;37062;52.546;13.230;2023-04-01T06:02:48;6.20;;;2.75;;
51034;SDS011;37062;52.546;13.230;2023-04-01T06:05:20;4.90;;;2.13;;
51034;SDS011;37062;52.546;13.230;2023-04-01T06:07:49;5.43;;;2.90;;
51034;SDS011;37062;52.546;13.230;2023-04-01T06:10:25;4.32;;;2.65;;
51034;SDS011;37062;52.546;13.230;2023-04-01T06:13:09;6.25;;;2.20;;
51034;SDS011;37062;52.546;13.230;2023-04-01T06:15:47;5.40;;;2.08;;
51034;SDS011;37062;52.546;13.230;2023-04-01T06:21:21;3.83;;;2.25;;
51034;SDS011;37062;52.546;13.230;2023-04-01T06:24:18;3.47;;;2.30;;
51034;SDS011;37062;52.546;13.230;2023-04-01T06:27:01;3.67;;;2.10;;
51034;SDS011;37062;52.546;13.230;2023-04-01T06:29:43;4.28;;;2.30;;
51034;SDS011;37062;52.546;13.230;2023-04-01T06:32:37;3.40;;;2.10;;
51034;SDS011;37062;52.546;13.230;2023-04-01T06:35:35;3.67;;;2.15;;
51034;SDS011;37062;52.546;13.230;2023-04-01T06:41:36;4.95;;;2.40;;
51034;SDS011;37062;52.546;13.230;2023-04-01T06:44:20;2.95;;;2.00;;
51034;SDS011;37062;52.546;13.230;2023-04-01T06:47:20;4.20;;;1.88;;
51034;SDS011;37062;52.546;13.230;2023-04-01T06:50:36;4.97;;;1.98;;
51034;SDS011;37062;52.546;13.230;2023-04-01T06:53:31;4.22;;;2.38;;
51034;SDS011;37062;52.546;13.230;2023-04-01T06:56:29;6.35;;;2.72;;
51034;SDS011;37062;52.546;13.230;2023-04-01T06:59:04;3.20;;;2.00;;
51034;SDS011;37062;52.546;13.230;2023-04-01T07:01:39;4.43;;;2.30;;
51034;SDS011;37062;52.546;13.230;2023-04-01T07:04:11;2.97;;;1.65;;
51034;SDS011;37062;52.546;13.230;2023-04-01T07:06:43;4.35;;;1.90;;
51034;SDS011;37062;52.546;13.230;2023-04-01T07:09:18;5.40;;;2.08;;
51034;SDS011;37062;52.546;13.230;2023-04-01T07:12:10;5.47;;;2.00;;
51034;SDS011;37062;52.546;13.230;2023-04-01T07:15:19;4.25;;;2.10;;
51034;SDS011;37062;52.546;13.230;2023-04-01T07:17:53;6.35;;;2.25;;
51034;SDS011;37062;52.546;13.230;2023-04-01T07:20:25;5.85;;;2.00;;
51034;SDS011;37062;52.546;13.230;2023-04-01T07:22:58;3.53;;;1.73;;
51034;SDS011;37062;52.546;13.230;2023-04-01T07:25:33;3.15;;;1.80;;
51034;SDS011;37062;52.546;13.230;2023-04-01T07:28:34;4.05;;;1.80;;
51034;SDS011;37062;52.546;13.230;2023-04-01T07:31:15;2.97;;;1.60;;
51034;SDS011;37062;52.546;13.230;2023-04-01T07:33:52;5.07;;;1.92;;
51034;SDS011;37062;52.546;13.230;2023-04-01T07:36:26;3.38;;;2.13;;
51034;SDS011;37062;52.546;13.230;2023-04-01T07:39:03;5.43;;;2.05;;
51034;SDS011;37062;52.546;13.230;2023-04-01T07:41:55;3.78;;;1.88;;
51034;SDS011;37062;52.546;13.230;2023-04-01T07:44:32;2.97;;;1.85;;
51034;SDS011;37062;52.546;13.230;2023-04-01T07:47:20;2.85;;;1.50;;
51034;SDS011;37062;52.546;13.230;2023-04-01T07:50:05;5.18;;;2.35;;
51034;SDS011;37062;52.546;13.230;2023-04-01T07:52:43;5.45;;;1.95;;
51034;SDS011;37062;52.546;13.230;2023-04-01T07:55:23;4.47;;;2.30;;
51034;SDS011;37062;52.546;13.230;2023-04-01T07:58:00;6.00;;;2.47;;
51034;SDS011;37062;52.546;13.230;2023-04-01T08:00:42;6.78;;;2.10;;
51034;SDS011;37062;52.546;13.230;2023-04-01T08:03:35;5.63;;;2.53;;
51034;SDS011;37062;52.546;13.230;2023-04-01T08:06:19;4.97;;;2.60;;
51034;SDS011;37062;52.546;13.230;2023-04-01T08:08:57;4.43;;;2.25;;
51034;SDS011;37062;52.546;13.230;2023-04-01T08:11:54;4.28;;;2.22;;
51034;SDS011;37062;52.546;13.230;2023-04-01T08:15:09;3.47;;;2.08;;
51034;SDS011;37062;52.546;13.230;2023-04-01T08:18:02;3.83;;;2.17;;
51034;SDS011;37062;52.546;13.230;2023-04-01T08:20:38;2.88;;;1.60;;
51034;SDS011;37062;52.546;13.230;2023-04-01T08:23:13;2.10;;;1.58;;
51034;SDS011;37062;52.546;13.230;2023-04-01T08:25:46;3.22;;;1.45;;
51034;SDS011;37062;52.546;13.230;2023-04-01T08:28:21;4.13;;;1.33;;
51034;SDS011;37062;52.546;13.230;2023-04-01T08:30:54;1.83;;;1.60;;
51034;SDS011;37062;52.546;13.230;2023-04-01T08:33:28;1.92;;;1.55;;
51034;SDS011;37062;52.546;13.230;2023-04-01T08:36:03;2.45;;;1.70;;
51034;SDS011;37062;52.546;13.230;2023-04-01T08:38:39;2.15;;;1.52;;
51034;SDS011;37062;52.546;13.230;2023-04-01T08:41:14;2.22;;;1.20;;
51034;SDS011;37062;52.546;13.230;2023-04-01T08:44:36;1.20;;;1.10;;
51034;SDS011;37062;52.546;13.230;2023-04-01T08:47:50;1.75;;;1.40;;
51034;SDS011;37062;52.546;13.230;2023-04-01T08:53:57;2.28;;;1.90;;
51034;SDS011;37062;52.546;13.230;2023-04-01T08:56:53;1.73;;;1.60;;
51034;SDS011;37062;52.546;13.230;2023-04-01T08:59:32;2.20;;;2.00;;
51034;SDS011;37062;52.546;13.230;2023-04-01T09:02:39;2.40;;;2.20;;
51034;SDS011;37062;52.546;13.230;2023-04-01T09:05:34;3.60;;;3.00;;
51034;SDS011;37062;52.546;13.230;2023-04-01T09:08:14;3.38;;;2.67;;
51034;SDS011;37062;52.546;13.230;2023-04-01T09:10:59;3.63;;;3.13;;
51034;SDS011;37062;52.546;13.230;2023-04-01T09:14:17;4.10;;;3.00;;
51034;SDS011;37062;52.546;13.230;2023-04-01T09:17:30;4.60;;;3.15;;
51034;SDS011;37062;52.546;13.230;2023-04-01T09:23:10;3.78;;;3.38;;
51034;SDS011;37062;52.546;13.230;2023-04-01T09:26:02;6.43;;;3.80;;
51034;SDS011;37062;52.546;13.230;2023-04-01T09:28:42;4.15;;;3.58;;
51034;SDS011;37062;52.546;13.230;2023-04-01T09:34:26;4.28;;;3.80;;
51034;SDS011;37062;52.546;13.230;2023-04-01T09:37:17;4.20;;;3.80;;
51034;SDS011;37062;52.546;13.230;2023-04-01T09:42:56;5.03;;;4.53;;
51034;SDS011;37062;52.546;13.230;2023-04-01T09:45:42;5.38;;;4.88;;
51034;SDS011;37062;52.546;13.230;2023-04-01T09:48:27;6.22;;;5.28;;
51034;SDS011;37062;52.546;13.230;2023-04-01T09:51:22;5.93;;;5.38;;
51034;SDS011;37062;52.546;13.230;2023-04-01T09:54:05;6.30;;;5.60;;
51034;SDS011;37062;52.546;13.230;2023-04-01T10:03:05;7.40;;;5.82;;
51034;SDS011;37062;52.546;13.230;2023-04-01T10:09:09;5.80;;;5.25;;
51034;SDS011;37062;52.546;13.230;2023-04-01T10:12:08;6.70;;;5.80;;
51034;SDS011;37062;52.546;13.230;2023-04-01T10:15:17;6.38;;;5.72;;
51034;SDS011;37062;52.546;13.230;2023-04-01T10:21:16;7.45;;;6.05;;
51034;SDS011;37062;52.546;13.230;2023-04-01T10:30:15;5.90;;;5.35;;
51034;SDS011;37062;52.546;13.230;2023-04-01T10:36:49;5.85;;;5.30;;
51034;SDS011;37062;52.546;13.230;2023-04-01T10:39:34;6.43;;;5.82;;
51034;SDS011;37062;52.546;13.230;2023-04-01T11:03:06;7.32;;;6.63;;
51034;SDS011;37062;52.546;13.230;2023-04-01T11:09:27;9.48;;;6.18;;
51034;SDS011;37062;52.546;13.230;2023-04-01T11:15:58;6.70;;;6.10;;
51034;SDS011;37062;52.546;13.230;2023-04-01T11:21:54;9.45;;;6.13;;
51034;SDS011;37062;52.546;13.230;2023-04-01T11:28:11;7.15;;;6.45;;
51034;SDS011;37062;52.546;13.230;2023-04-01T11:31:03;6.07;;;5.57;;
51034;SDS011;37062;52.546;13.230;2023-04-01T11:33:44;6.80;;;6.20;;
51034;SDS011;37062;52.546;13.230;2023-04-01T11:36:21;5.90;;;5.40;;
51034;SDS011;37062;52.546;13.230;2023-04-01T11:39:10;7.82;;;7.03;;
51034;SDS011;37062;52.546;13.230;2023-04-01T11:42:10;7.43;;;6.72;;
51034;SDS011;37062;52.546;13.230;2023-04-01T11:45:08;8.85;;;7.63;;
51034;SDS011;37062;52.546;13.230;2023-04-01T11:47:49;7.72;;;7.03;;
51034;SDS011;37062;52.546;13.230;2023-04-01T11:50:38;8.40;;;7.57;;
51034;SDS011;37062;52.546;13.230;2023-04-01T11:53:23;8.02;;;7.20;;
51034;SDS011;37062;52.546;13.230;2023-04-01T11:56:01;7.30;;;6.60;;
51034;SDS011;37062;52.546;13.230;2023-04-01T12:01:49;9.38;;;7.97;;
51034;SDS011;37062;52.546;13.230;2023-04-01T12:04:38;8.18;;;7.38;;
51034;SDS011;37062;52.546;13.230;2023-04-01T12:07:27;8.60;;;7.20;;
51034;SDS011;37062;52.546;13.230;2023-04-01T12:10:19;7.65;;;6.95;;
51034;SDS011;37062;52.546;13.230;2023-04-01T12:12:52;8.45;;;7.65;;
51034;SDS011;37062;52.546;13.230;2023-04-01T12:15:29;8.55;;;7.70;;
51034;SDS011;37062;52.546;13.230;2023-04-01T12:18:05;8.60;;;7.70;;
51034;SDS011;37062;52.546;13.230;2023-04-01T12:20:45;8.77;;;7.97;;
51034;SDS011;37062;52.546;13.230;2023-04-01T12:23:21;8.35;;;7.50;;
51034;SDS011;37062;52.546;13.230;2023-04-01T12:26:39;7.80;;;7.10;;
51034;SDS011;37062;52.546;13.230;2023-04-01T12:29:21;8.38;;;7.57;;
51034;SDS011;37062;52.546;13.230;2023-04-01T12:32:19;8.52;;;7.72;;
51034;SDS011;37062;52.546;13.230;2023-04-01T12:35:02;7.75;;;7.05;;
51034;SDS011;37062;52.546;13.230;2023-04-01T12:37:50;8.07;;;7.38;;
51034;SDS011;37062;52.546;13.230;2023-04-01T12:40:37;7.82;;;7.13;;
51034;SDS011;37062;52.546;13.230;2023-04-01T12:43:21;8.90;;;8.10;;
51034;SDS011;37062;52.546;13.230;2023-04-01T12:46:18;8.10;;;7.30;;
51034;SDS011;37062;52.546;13.230;2023-04-01T12:48:57;7.50;;;6.80;;
51034;SDS011;37062;52.546;13.230;2023-04-01T12:57:48;6.78;;;6.18;;
51034;SDS011;37062;52.546;13.230;2023-04-01T13:00:46;7.53;;;6.82;;
51034;SDS011;37062;52.546;13.230;2023-04-01T13:03:41;7.50;;;6.80;;
51034;SDS011;37062;52.546;13.230;2023-04-01T13:06:24;8.40;;;7.60;;
51034;SDS011;37062;52.546;13.230;2023-04-01T13:09:11;7.03;;;6.38;;
51034;SDS011;37062;52.546;13.230;2023-04-01T13:11:50;9.80;;;8.82;;
51034;SDS011;37062;52.546;13.230;2023-04-01T13:17:36;8.43;;;7.57;;
51034;SDS011;37062;52.546;13.230;2023-04-01T13:20:16;8.35;;;7.55;;
51034;SDS011;37062;52.546;13.230;2023-04-01T13:22:54;9.57;;;8.45;;
51034;SDS011;37062;52.546;13.230;2023-04-01T13:25:34;8.05;;;7.25;;
51034;SDS011;37062;52.546;13.230;2023-04-01T13:28:13;9.23;;;8.07;;
51034;SDS011;37062;52.546;13.230;2023-04-01T13:30:49;9.52;;;8.07;;
51034;SDS011;37062;52.546;13.230;2023-04-01T13:33:26;38.08;;;19.90;;
51034;SDS011;37062;52.546;13.230;2023-04-01T13:36:08;7.63;;;6.82;;
51034;SDS011;37062;52.546;13.230;2023-04-01T13:38:48;9.00;;;7.93;;
51034;SDS011;37062;52.546;13.230;2023-04-01T13:41:38;8.45;;;7.53;;
51034;SDS011;37062;52.546;13.230;2023-04-01T13:44:28;9.77;;;7.50;;
51034;SDS011;37062;52.546;13.230;2023-04-01T13:47:11;8.85;;;7.88;;
51034;SDS011;37062;52.546;13.230;2023-04-01T13:49:55;8.23;;;6.40;;
51034;SDS011;37062;52.546;13.230;2023-04-01T13:55:35;4.30;;;3.90;;
51034;SDS011;37062;52.546;13.230;2023-04-01T13:58:20;5.90;;;4.07;;
51034;SDS011;37062;52.546;13.230;2023-04-01T14:01:04;10.00;;;5.55;;
51034;SDS011;37062;52.546;13.230;2023-04-01T14:03:49;3.85;;;3.20;;
51034;SDS011;37062;52.546;13.230;2023-04-01T14:06:44;3.35;;;3.05;;
51034;SDS011;37062;52.546;13.230;2023-04-01T14:09:34;5.45;;;3.10;;
51034;SDS011;37062;52.546;13.230;2023-04-01T14:12:26;3.13;;;2.70;;
51034;SDS011;37062;52.546;13.230;2023-04-01T14:15:07;4.20;;;3.05;;
51034;SDS011;37062;52.546;13.230;2023-04-01T14:17:54;4.30;;;3.03;;
51034;SDS011;37062;52.546;13.230;2023-04-01T14:20:37;3.38;;;2.90;;
51034;SDS011;37062;52.546;13.230;2023-04-01T14:23:25;3.55;;;3.10;;
51034;SDS011;37062;52.546;13.230;2023-04-01T14:29:16;5.15;;;3.35;;
51034;SDS011;37062;52.546;13.230;2023-04-01T14:32:06;3.72;;;2.92;;
51034;SDS011;37062;52.546;13.230;2023-04-01T14:34:50;4.07;;;3.00;;
51034;SDS011;37062;52.546;13.230;2023-04-01T14:40:26;3.42;;;2.47;;
51034;SDS011;37062;52.546;13.230;2023-04-01T14:42:59;2.90;;;2.60;;
51034;SDS011;37062;52.546;13.230;2023-04-01T14:45:46;4.22;;;2.53;;
51034;SDS011;37062;52.546;13.230;2023-04-01T14:48:28;2.72;;;2.10;;
51034;SDS011;37062;52.546;13.230;2023-04-01T14:51:08;3.15;;;2.30;;
51034;SDS011;37062;52.546;13.230;2023-04-01T14:53:43;2.92;;;2.45;;
51034;SDS011;37062;52.546;13.230;2023-04-01T14:59:04;8.82;;;2.50;;
51034;SDS011;37062;52.546;13.230;2023-04-01T15:01:39;3.03;;;2.38;;
51034;SDS011;37062;52.546;13.230;2023-04-01T15:04:23;2.97;;;2.30;;
51034;SDS011;37062;52.546;13.230;2023-04-01T15:07:11;2.42;;;2.17;;
51034;SDS011;37062;52.546;13.230;2023-04-01T15:10:03;3.10;;;2.40;;
51034;SDS011;37062;52.546;13.230;2023-04-01T15:12:38;3.70;;;2.70;;
51034;SDS011;37062;52.546;13.230;2023-04-01T15:15:24;3.90;;;3.10;;
51034;SDS011;37062;52.546;13.230;2023-04-01T15:18:09;4.75;;;2.88;;
51034;SDS011;37062;52.546;13.230;2023-04-01T15:20:46;5.10;;;2.88;;
51034;SDS011;37062;52.546;13.230;2023-04-01T15:23:32;3.85;;;3.13;;
51034;SDS011;37062;52.546;13.230;2023-04-01T15:26:13;5.50;;;3.40;;
51034;SDS011;37062;52.546;13.230;2023-04-01T15:28:51;3.40;;;3.10;;
51034;SDS011;37062;52.546;13.230;2023-04-01T15:31:32;4.28;;;3.40;;
51034;SDS011;37062;52.546;13.230;2023-04-01T15:34:15;4.20;;;3.40;;
51034;SDS011;37062;52.546;13.230;2023-04-01T15:36:52;4.35;;;3.53;;
51034;SDS011;37062;52.546;13.230;2023-04-01T15:39:27;5.75;;;3.60;;
51034;SDS011;37062;52.546;13.230;2023-04-01T15:42:10;5.10;;;3.75;;
51034;SDS011;37062;52.546;13.230;2023-04-01T15:44:53;4.28;;;3.85;;
51034;SDS011;37062;52.546;13.230;2023-04-01T15:47:42;3.75;;;3.08;;
51034;SDS011;37062;52.546;13.230;2023-04-01T15:53:28;4.32;;;3.42;;
51034;SDS011;37062;52.546;13.230;2023-04-01T15:59:17;3.50;;;2.88;;
51034;SDS011;37062;52.546;13.230;2023-04-01T16:01:59;3.85;;;3.10;;
51034;SDS011;37062;52.546;13.230;2023-04-01T16:04:39;4.03;;;3.35;;
51034;SDS011;37062;52.546;13.230;2023-04-01T16:07:27;4.45;;;3.70;;
51034;SDS011;37062;52.546;13.230;2023-04-01T16:13:14;4.45;;;3.40;;
51034;SDS011;37062;52.546;13.230;2023-04-01T16:15:53;4.32;;;3.50;;
51034;SDS011;37062;52.546;13.230;2023-04-01T16:18:33;5.75;;;3.63;;
51034;SDS011;37062;52.546;13.230;2023-04-01T16:21:11;3.65;;;3.08;;
51034;SDS011;37062;52.546;13.230;2023-04-01T16:23:48;4.28;;;3.60;;
51034;SDS011;37062;52.546;13.230;2023-04-01T16:26:22;5.82;;;3.70;;
51034;SDS011;37062;52.546;13.230;2023-04-01T16:28:54;3.88;;;3.15;;
51034;SDS011;37062;52.546;13.230;2023-04-01T16:31:31;6.78;;;3.47;;
51034;SDS011;37062;52.546;13.230;2023-04-01T16:34:03;4.80;;;2.83;;
51034;SDS011;37062;52.546;13.230;2023-04-01T16:36:40;4.75;;;3.35;;
51034;SDS011;37062;52.546;13.230;2023-04-01T16:39:19;4.43;;;3.03;;
51034;SDS011;37062;52.546;13.230;2023-04-01T16:41:59;5.70;;;3.42;;
51034;SDS011;37062;52.546;13.230;2023-04-01T16:44:53;4.40;;;3.85;;
51034;SDS011;37062;52.546;13.230;2023-04-01T16:47:29;4.07;;;3.38;;
51034;SDS011;37062;52.546;13.230;2023-04-01T16:50:00;4.43;;;3.05;;
51034;SDS011;37062;52.546;13.230;2023-04-01T16:52:43;6.47;;;3.67;;
51034;SDS011;37062;52.546;13.230;2023-04-01T16:55:33;5.40;;;3.42;;
51034;SDS011;37062;52.546;13.230;2023-04-01T16:58:03;5.72;;;3.83;;
51034;SDS011;37062;52.546;13.230;2023-04-01T17:00:37;6.85;;;3.17;;
51034;SDS011;37062;52.546;13.230;2023-04-01T17:03:12;3.95;;;3.22;;
51034;SDS011;37062;52.546;13.230;2023-04-01T17:05:49;5.60;;;3.60;;
51034;SDS011;37062;52.546;13.230;2023-04-01T17:08:31;10.43;;;3.45;;
51034;SDS011;37062;52.546;13.230;2023-04-01T17:11:09;4.65;;;3.40;;
51034;SDS011;37062;52.546;13.230;2023-04-01T17:13:46;5.93;;;3.65;;
51034;SDS011;37062;52.546;13.230;2023-04-01T17:16:36;3.70;;;2.80;;
51034;SDS011;37062;52.546;13.230;2023-04-01T17:19:22;3.80;;;2.60;;
51034;SDS011;37062;52.546;13.230;2023-04-01T17:22:07;5.13;;;3.08;;
51034;SDS011;37062;52.546;13.230;2023-04-01T17:24:51;5.95;;;2.92;;
51034;SDS011;37062;52.546;13.230;2023-04-01T17:27:34;3.17;;;2.60;;
51034;SDS011;37062;52.546;13.230;2023-04-01T17:30:13;3.80;;;2.50;;
51034;SDS011;37062;52.546;13.230;2023-04-01T17:32:54;3.72;;;2.70;;